sensor_id;sensor_type;location;lat;lon;timestamp;P1;durP1;ratioP1;P2;durP2;ratioP2
27213;SDS011;14723;55.814;37.460;2023-02-12T00:00:45;5.95;;;3.30;;
27213;SDS011;14723;55.814;37.460;2023-02-12T00:03:51;5.00;;;3.20;;
27213;SDS011;14723;55.814;37.460;2023-02-12T00:06:57;5.25;;;3.10;;
27213;SDS011;14723;55.814;37.460;2023-02-12T00:10:03;7.05;;;3.10;;
27213;SDS011;14723;55.814;37.460;2023-02-12T00:13:08;6.57;;;2.78;;
27213;SDS011;14723;55.814;37.460;2023-02-12T00:16:17;5.32;;;3.17;;
27213;SDS011;14723;55.814;37.460;2023-02-12T00:19:23;11.38;;;3.38;;
27213;SDS011;14723;55.814;37.460;2023-02-12T00:22:28;5.93;;;3.33;;
27213;SDS011;14723;55.814;37.460;2023-02-12T00:25:34;4.85;;;2.67;;
27213;SDS011;14723;55.814;37.460;2023-02-12T00:28:40;14.40;;;3.35;;
27213;SDS011;14723;55.814;37.460;2023-02-12T00:31:49;10.20;;;3.72;;
27213;SDS011;14723;55.814;37.460;2023-02-12T00:34:55;9.27;;;4.30;;
27213;SDS011;14723;55.814;37.460;2023-02-12T00:38:00;9.93;;;3.92;;
27213;SDS011;14723;55.814;37.460;2023-02-12T00:41:06;9.15;;;3.80;;
27213;SDS011;14723;55.814;37.460;2023-02-12T00:44:11;11.00;;;5.13;;
27213;SDS011;14723;55.814;37.460;2023-02-12T00:47:20;9.88;;;4.75;;
27213;SDS011;14723;55.814;37.460;2023-02-12T00:50:25;10.85;;;4.60;;
27213;SDS011;14723;55.814;37.460;2023-02-12T00:53:34;8.20;;;4.13;;
27213;SDS011;14723;55.814;37.460;2023-02-12T00:56:41;8.40;;;3.92;;
27213;SDS011;14723;55.814;37.460;2023-02-12T00:59:46;10.18;;;3.83;;
27213;SDS011;14723;55.814;37.460;2023-02-12T01:02:54;7.60;;;4.13;;
27213;SDS011;14723;55.814;37.460;2023-02-12T01:05:59;10.38;;;4.43;;
27213;SDS011;14723;55.814;37.460;2023-02-12T01:09:05;9.60;;;4.50;;
27213;SDS011;14723;55.814;37.460;2023-02-12T01:12:10;8.60;;;3.85;;
27213;SDS011;14723;55.814;37.460;2023-02-12T01:15:16;11.95;;;4.32;;
27213;SDS011;14723;55.814;37.460;2023-02-12T01:18:24;8.93;;;4.43;;
27213;SDS011;14723;55.814;37.460;2023-02-12T01:24:35;10.50;;;4.35;;
27213;SDS011;14723;55.814;37.460;2023-02-12T01:27:40;7.60;;;4.13;;
27213;SDS011;14723;55.814;37.460;2023-02-12T01:30:46;11.77;;;5.10;;
27213;SDS011;14723;55.814;37.460;2023-02-12T01:33:54;7.55;;;4.28;;
27213;SDS011;14723;55.814;37.460;2023-02-12T01:37:00;11.32;;;4.70;;
27213;SDS011;14723;55.814;37.460;2023-02-12T01:40:06;19.23;;;5.20;;
27213;SDS011;14723;55.814;37.460;2023-02-12T01:43:13;9.67;;;4.30;;
27213;SDS011;14723;55.814;37.460;2023-02-12T01:46:18;6.97;;;4.53;;
27213;SDS011;14723;55.814;37.460;2023-02-12T01:49:27;7.25;;;3.50;;
27213;SDS011;14723;55.814;37.460;2023-02-12T01:52:37;8.45;;;3.72;;
27213;SDS011;14723;55.814;37.460;2023-02-12T01:55:43;7.53;;;3.60;;
27213;SDS011;14723;55.814;37.460;2023-02-12T01:58:48;6.13;;;3.22;;
27213;SDS011;14723;55.814;37.460;2023-02-12T02:01:56;7.10;;;2.47;;
27213;SDS011;14723;55.814;37.460;2023-02-12T02:05:05;5.63;;;2.65;;
27213;SDS011;14723;55.814;37.460;2023-02-12T02:08:11;4.47;;;2.70;;
27213;SDS011;14723;55.814;37.460;2023-02-12T02:11:17;5.53;;;2.60;;
27213;SDS011;14723;55.814;37.460;2023-02-12T02:14:34;5.25;;;1.92;;
27213;SDS011;14723;55.814;37.460;2023-02-12T02:17:42;4.88;;;2.53;;
27213;SDS011;14723;55.814;37.460;2023-02-12T02:21:01;11.98;;;2.78;;
27213;SDS011;14723;55.814;37.460;2023-02-12T02:27:32;8.02;;;2.95;;
27213;SDS011;14723;55.814;37.460;2023-02-12T02:30:42;7.22;;;2.80;;
27213;SDS011;14723;55.814;37.460;2023-02-12T02:33:52;6.15;;;2.75;;
27213;SDS011;14723;55.814;37.460;2023-02-12T02:37:00;8.40;;;3.10;;
27213;SDS011;14723;55.814;37.460;2023-02-12T02:40:08;8.18;;;3.30;;
27213;SDS011;14723;55.814;37.460;2023-02-12T02:43:15;8.57;;;3.63;;
27213;SDS011;14723;55.814;37.460;2023-02-12T02:46:25;11.23;;;3.70;;
27213;SDS011;14723;55.814;37.460;2023-02-12T02:49:32;9.65;;;4.35;;
27213;SDS011;14723;55.814;37.460;2023-02-12T02:52:42;11.35;;;3.97;;
27213;SDS011;14723;55.814;37.460;2023-02-12T02:55:49;11.63;;;4.32;;
27213;SDS011;14723;55.814;37.460;2023-02-12T02:58:56;9.40;;;4.45;;
27213;SDS011;14723;55.814;37.460;2023-02-12T03:02:08;11.88;;;4.72;;
27213;SDS011;14723;55.814;37.460;2023-02-12T03:05:16;8.13;;;4.53;;
27213;SDS011;14723;55.814;37.460;2023-02-12T03:08:23;18.85;;;4.93;;
27213;SDS011;14723;55.814;37.460;2023-02-12T03:11:30;11.45;;;4.18;;
27213;SDS011;14723;55.814;37.460;2023-02-12T03:14:37;11.90;;;4.00;;
27213;SDS011;14723;55.814;37.460;2023-02-12T03:17:46;11.40;;;3.95;;
27213;SDS011;14723;55.814;37.460;2023-02-12T03:20:54;10.73;;;3.92;;
27213;SDS011;14723;55.814;37.460;2023-02-12T03:24:03;5.63;;;2.90;;
27213;SDS011;14723;55.814;37.460;2023-02-12T03:27:12;13.55;;;3.20;;
27213;SDS011;14723;55.814;37.460;2023-02-12T03:30:20;7.88;;;2.65;;
27213;SDS011;14723;55.814;37.460;2023-02-12T03:33:29;7.35;;;3.25;;
27213;SDS011;14723;55.814;37.460;2023-02-12T03:36:41;9.02;;;3.20;;
27213;SDS011;14723;55.814;37.460;2023-02-12T03:39:49;7.53;;;3.00;;
27213;SDS011;14723;55.814;37.460;2023-02-12T03:42:58;11.90;;;2.78;;
27213;SDS011;14723;55.814;37.460;2023-02-12T03:46:07;10.15;;;2.97;;
27213;SDS011;14723;55.814;37.460;2023-02-12T03:49:20;6.55;;;3.28;;
27213;SDS011;14723;55.814;37.460;2023-02-12T03:52:27;7.05;;;2.78;;
27213;SDS011;14723;55.814;37.460;2023-02-12T03:55:34;6.72;;;2.80;;
27213;SDS011;14723;55.814;37.460;2023-02-12T03:58:40;4.18;;;2.53;;
27213;SDS011;14723;55.814;37.460;2023-02-12T04:01:47;9.52;;;2.58;;
27213;SDS011;14723;55.814;37.460;2023-02-12T04:04:56;4.68;;;2.00;;
27213;SDS011;14723;55.814;37.460;2023-02-12T04:08:01;9.13;;;2.97;;
27213;SDS011;14723;55.814;37.460;2023-02-12T04:11:11;7.18;;;3.08;;
27213;SDS011;14723;55.814;37.460;2023-02-12T04:14:21;6.32;;;3.15;;
27213;SDS011;14723;55.814;37.460;2023-02-12T04:17:29;7.15;;;2.00;;
27213;SDS011;14723;55.814;37.460;2023-02-12T04:20:43;8.60;;;2.40;;
27213;SDS011;14723;55.814;37.460;2023-02-12T04:23:54;5.13;;;2.30;;
27213;SDS011;14723;55.814;37.460;2023-02-12T04:27:02;6.55;;;3.13;;
27213;SDS011;14723;55.814;37.460;2023-02-12T04:30:12;6.95;;;1.90;;
27213;SDS011;14723;55.814;37.460;2023-02-12T04:33:20;7.18;;;2.00;;
27213;SDS011;14723;55.814;37.460;2023-02-12T04:36:30;7.85;;;2.47;;
27213;SDS011;14723;55.814;37.460;2023-02-12T04:39:36;4.65;;;1.70;;
27213;SDS011;14723;55.814;37.460;2023-02-12T04:42:43;5.70;;;2.17;;
27213;SDS011;14723;55.814;37.460;2023-02-12T04:45:49;6.03;;;1.95;;
27213;SDS011;14723;55.814;37.460;2023-02-12T04:48:55;5.45;;;1.80;;
27213;SDS011;14723;55.814;37.460;2023-02-12T04:52:04;4.78;;;1.70;;
27213;SDS011;14723;55.814;37.460;2023-02-12T04:55:10;2.28;;;1.17;;
27213;SDS011;14723;55.814;37.460;2023-02-12T04:58:16;5.88;;;1.30;;
27213;SDS011;14723;55.814;37.460;2023-02-12T05:01:21;6.43;;;1.35;;
27213;SDS011;14723;55.814;37.460;2023-02-12T05:04:26;2.50;;;1.20;;
27213;SDS011;14723;55.814;37.460;2023-02-12T05:07:34;6.45;;;1.20;;
27213;SDS011;14723;55.814;37.460;2023-02-12T05:10:40;2.67;;;1.00;;
27213;SDS011;14723;55.814;37.460;2023-02-12T05:13:47;4.60;;;1.20;;
27213;SDS011;14723;55.814;37.460;2023-02-12T05:16:52;5.57;;;1.20;;
27213;SDS011;14723;55.814;37.460;2023-02-12T05:19:57;4.47;;;1.20;;
27213;SDS011;14723;55.814;37.460;2023-02-12T05:23:07;3.38;;;1.13;;
27213;SDS011;14723;55.814;37.460;2023-02-12T05:26:13;19.73;;;1.17;;
27213;SDS011;14723;55.814;37.460;2023-02-12T05:29:19;2.40;;;1.02;;
27213;SDS011;14723;55.814;37.460;2023-02-12T05:32:25;6.88;;;1.42;;
27213;SDS011;14723;55.814;37.460;2023-02-12T05:35:31;3.05;;;1.15;;
27213;SDS011;14723;55.814;37.460;2023-02-12T05:38:41;2.75;;;1.02;;
27213;SDS011;14723;55.814;37.460;2023-02-12T05:41:46;3.92;;;1.50;;
27213;SDS011;14723;55.814;37.460;2023-02-12T05:44:52;4.22;;;1.00;;
27213;SDS011;14723;55.814;37.460;2023-02-12T05:47:57;5.18;;;1.00;;
27213;SDS011;14723;55.814;37.460;2023-02-12T05:51:04;4.00;;;1.08;;
27213;SDS011;14723;55.814;37.460;2023-02-12T05:54:12;3.70;;;1.10;;
27213;SDS011;14723;55.814;37.460;2023-02-12T05:57:17;2.75;;;1.40;;
27213;SDS011;14723;55.814;37.460;2023-02-12T06:00:22;1.80;;;0.90;;
27213;SDS011;14723;55.814;37.460;2023-02-12T06:03:28;3.50;;;0.95;;
27213;SDS011;14723;55.814;37.460;2023-02-12T06:06:34;4.53;;;1.08;;
27213;SDS011;14723;55.814;37.460;2023-02-12T06:09:45;4.57;;;0.90;;
27213;SDS011;14723;55.814;37.460;2023-02-12T06:12:52;3.90;;;1.13;;
27213;SDS011;14723;55.814;37.460;2023-02-12T06:15:58;5.20;;;1.02;;
27213;SDS011;14723;55.814;37.460;2023-02-12T06:19:04;4.15;;;1.45;;
27213;SDS011;14723;55.814;37.460;2023-02-12T06:22:10;2.75;;;1.08;;
27213;SDS011;14723;55.814;37.460;2023-02-12T06:25:18;3.60;;;1.10;;
27213;SDS011;14723;55.814;37.460;2023-02-12T06:28:23;6.47;;;1.33;;
27213;SDS011;14723;55.814;37.460;2023-02-12T06:31:29;3.55;;;0.80;;
27213;SDS011;14723;55.814;37.460;2023-02-12T06:34:35;5.22;;;0.98;;
27213;SDS011;14723;55.814;37.460;2023-02-12T06:37:40;1.90;;;1.05;;
27213;SDS011;14723;55.814;37.460;2023-02-12T06:40:48;6.43;;;1.00;;
27213;SDS011;14723;55.814;37.460;2023-02-12T06:46:59;3.65;;;1.10;;
27213;SDS011;14723;55.814;37.460;2023-02-12T06:50:05;4.80;;;1.05;;
27213;SDS011;14723;55.814;37.460;2023-02-12T06:53:11;7.88;;;1.10;;
27213;SDS011;14723;55.814;37.460;2023-02-12T06:56:20;4.72;;;0.98;;
27213;SDS011;14723;55.814;37.460;2023-02-12T06:59:26;3.60;;;1.10;;
27213;SDS011;14723;55.814;37.460;2023-02-12T07:02:32;4.55;;;1.08;;
27213;SDS011;14723;55.814;37.460;2023-02-12T07:05:40;4.27;;;0.80;;
27213;SDS011;14723;55.814;37.460;2023-02-12T07:08:45;2.72;;;0.98;;
27213;SDS011;14723;55.814;37.460;2023-02-12T07:11:53;2.88;;;0.90;;
27213;SDS011;14723;55.814;37.460;2023-02-12T07:15:00;7.85;;;1.88;;
27213;SDS011;14723;55.814;37.460;2023-02-12T07:18:06;3.28;;;1.00;;
27213;SDS011;14723;55.814;37.460;2023-02-12T07:21:12;3.28;;;1.10;;
27213;SDS011;14723;55.814;37.460;2023-02-12T07:24:18;4.20;;;1.00;;
27213;SDS011;14723;55.814;37.460;2023-02-12T07:27:26;3.72;;;1.08;;
27213;SDS011;14723;55.814;37.460;2023-02-12T07:30:31;5.30;;;1.17;;
27213;SDS011;14723;55.814;37.460;2023-02-12T07:33:37;4.07;;;1.10;;
27213;SDS011;14723;55.814;37.460;2023-02-12T07:36:42;3.63;;;0.80;;
27213;SDS011;14723;55.814;37.460;2023-02-12T07:39:47;5.85;;;0.88;;
27213;SDS011;14723;55.814;37.460;2023-02-12T07:42:56;4.00;;;0.90;;
27213;SDS011;14723;55.814;37.460;2023-02-12T07:46:06;6.85;;;2.00;;
27213;SDS011;14723;55.814;37.460;2023-02-12T07:49:12;3.00;;;1.08;;
27213;SDS011;14723;55.814;37.460;2023-02-12T07:52:18;8.35;;;1.67;;
27213;SDS011;14723;55.814;37.460;2023-02-12T07:55:23;2.22;;;0.95;;
27213;SDS011;14723;55.814;37.460;2023-02-12T07:58:32;3.50;;;0.93;;
27213;SDS011;14723;55.814;37.460;2023-02-12T08:01:38;5.65;;;1.30;;
27213;SDS011;14723;55.814;37.460;2023-02-12T08:04:44;3.35;;;1.10;;
27213;SDS011;14723;55.814;37.460;2023-02-12T08:07:49;6.93;;;1.30;;
27213;SDS011;14723;55.814;37.460;2023-02-12T08:10:55;4.00;;;1.10;;
27213;SDS011;14723;55.814;37.460;2023-02-12T08:14:03;2.05;;;1.00;;
27213;SDS011;14723;55.814;37.460;2023-02-12T08:17:09;2.15;;;0.93;;
27213;SDS011;14723;55.814;37.460;2023-02-12T08:20:14;2.95;;;1.13;;
27213;SDS011;14723;55.814;37.460;2023-02-12T08:23:19;2.30;;;0.93;;
27213;SDS011;14723;55.814;37.460;2023-02-12T08:26:25;6.53;;;1.20;;
27213;SDS011;14723;55.814;37.460;2023-02-12T08:29:33;3.92;;;0.90;;
27213;SDS011;14723;55.814;37.460;2023-02-12T08:32:39;3.22;;;0.80;;
27213;SDS011;14723;55.814;37.460;2023-02-12T08:35:44;3.40;;;1.05;;
27213;SDS011;14723;55.814;37.460;2023-02-12T08:38:50;4.47;;;0.90;;
27213;SDS011;14723;55.814;37.460;2023-02-12T08:41:56;3.78;;;1.17;;
27213;SDS011;14723;55.814;37.460;2023-02-12T08:45:05;4.63;;;1.05;;
27213;SDS011;14723;55.814;37.460;2023-02-12T08:48:10;2.92;;;1.00;;
27213;SDS011;14723;55.814;37.460;2023-02-12T08:51:16;4.68;;;1.10;;
27213;SDS011;14723;55.814;37.460;2023-02-12T08:54:23;6.20;;;0.82;;
27213;SDS011;14723;55.814;37.460;2023-02-12T08:57:28;6.38;;;0.85;;
27213;SDS011;14723;55.814;37.460;2023-02-12T09:00:38;1.23;;;0.50;;
27213;SDS011;14723;55.814;37.460;2023-02-12T09:03:43;3.75;;;0.77;;
27213;SDS011;14723;55.814;37.460;2023-02-12T09:06:49;8.07;;;1.15;;
27213;SDS011;14723;55.814;37.460;2023-02-12T09:09:55;5.57;;;1.08;;
27213;SDS011;14723;55.814;37.460;2023-02-12T09:13:00;1.95;;;0.50;;
27213;SDS011;14723;55.814;37.460;2023-02-12T09:16:10;2.20;;;0.70;;
27213;SDS011;14723;55.814;37.460;2023-02-12T09:19:16;2.42;;;0.70;;
27213;SDS011;14723;55.814;37.460;2023-02-12T09:22:21;3.70;;;0.70;;
27213;SDS011;14723;55.814;37.460;2023-02-12T09:25:27;2.58;;;0.63;;
27213;SDS011;14723;55.814;37.460;2023-02-12T09:28:32;2.10;;;0.55;;
27213;SDS011;14723;55.814;37.460;2023-02-12T09:31:41;3.42;;;0.70;;
27213;SDS011;14723;55.814;37.460;2023-02-12T09:34:46;1.73;;;0.80;;
27213;SDS011;14723;55.814;37.460;2023-02-12T09:37:52;1.70;;;0.75;;
27213;SDS011;14723;55.814;37.460;2023-02-12T09:41:05;2.47;;;0.82;;
27213;SDS011;14723;55.814;37.460;2023-02-12T09:44:16;4.60;;;0.90;;
27213;SDS011;14723;55.814;37.460;2023-02-12T09:47:28;1.35;;;0.52;;
27213;SDS011;14723;55.814;37.460;2023-02-12T09:50:36;2.00;;;0.77;;
27213;SDS011;14723;55.814;37.460;2023-02-12T09:53:46;2.20;;;0.60;;
27213;SDS011;14723;55.814;37.460;2023-02-12T09:56:53;2.38;;;0.80;;
27213;SDS011;14723;55.814;37.460;2023-02-12T10:00:00;2.17;;;0.80;;
27213;SDS011;14723;55.814;37.460;2023-02-12T10:03:13;2.53;;;0.85;;
27213;SDS011;14723;55.814;37.460;2023-02-12T10:06:20;2.38;;;0.98;;
27213;SDS011;14723;55.814;37.460;2023-02-12T10:09:33;2.58;;;0.90;;
27213;SDS011;14723;55.814;37.460;2023-02-12T10:12:43;4.38;;;0.85;;
27213;SDS011;14723;55.814;37.460;2023-02-12T10:15:51;3.72;;;0.90;;
27213;SDS011;14723;55.814;37.460;2023-02-12T10:19:07;4.00;;;1.50;;
27213;SDS011;14723;55.814;37.460;2023-02-12T10:22:17;1.40;;;0.65;;
27213;SDS011;14723;55.814;37.460;2023-02-12T10:25:26;4.22;;;0.95;;
27213;SDS011;14723;55.814;37.460;2023-02-12T10:28:33;1.95;;;0.70;;
27213;SDS011;14723;55.814;37.460;2023-02-12T10:31:42;4.30;;;0.80;;
27213;SDS011;14723;55.814;37.460;2023-02-12T10:34:54;1.73;;;0.77;;
27213;SDS011;14723;55.814;37.460;2023-02-12T10:38:01;5.10;;;0.90;;
27213;SDS011;14723;55.814;37.460;2023-02-12T10:41:08;4.55;;;0.88;;
27213;SDS011;14723;55.814;37.460;2023-02-12T10:44:15;1.92;;;0.70;;
27213;SDS011;14723;55.814;37.460;2023-02-12T10:47:20;5.10;;;0.98;;
27213;SDS011;14723;55.814;37.460;2023-02-12T10:50:31;2.63;;;1.00;;
27213;SDS011;14723;55.814;37.460;2023-02-12T10:53:41;2.47;;;1.00;;
27213;SDS011;14723;55.814;37.460;2023-02-12T10:56:47;1.77;;;0.68;;
27213;SDS011;14723;55.814;37.460;2023-02-12T10:59:54;4.35;;;0.82;;
27213;SDS011;14723;55.814;37.460;2023-02-12T11:03:01;3.03;;;1.20;;
27213;SDS011;14723;55.814;37.460;2023-02-12T11:06:13;3.08;;;0.93;;
27213;SDS011;14723;55.814;37.460;2023-02-12T11:09:25;3.35;;;1.00;;
27213;SDS011;14723;55.814;37.460;2023-02-12T11:12:32;2.47;;;0.70;;
27213;SDS011;14723;55.814;37.460;2023-02-12T11:15:45;4.32;;;0.90;;
27213;SDS011;14723;55.814;37.460;2023-02-12T11:18:56;1.48;;;0.73;;
27213;SDS011;14723;55.814;37.460;2023-02-12T11:22:08;4.63;;;1.00;;
27213;SDS011;14723;55.814;37.460;2023-02-12T11:25:16;3.63;;;0.85;;
27213;SDS011;14723;55.814;37.460;2023-02-12T11:28:21;2.80;;;0.93;;
27213;SDS011;14723;55.814;37.460;2023-02-12T11:31:27;2.08;;;1.27;;
27213;SDS011;14723;55.814;37.460;2023-02-12T11:34:33;3.17;;;0.90;;
27213;SDS011;14723;55.814;37.460;2023-02-12T11:37:41;2.22;;;0.70;;
27213;SDS011;14723;55.814;37.460;2023-02-12T11:40:54;2.70;;;0.70;;
27213;SDS011;14723;55.814;37.460;2023-02-12T11:44:01;9.07;;;1.17;;
27213;SDS011;14723;55.814;37.460;2023-02-12T11:47:07;3.58;;;1.15;;
27213;SDS011;14723;55.814;37.460;2023-02-12T11:50:19;4.13;;;1.20;;
27213;SDS011;14723;55.814;37.460;2023-02-12T11:53:30;2.55;;;1.15;;
27213;SDS011;14723;55.814;37.460;2023-02-12T11:56:41;4.03;;;1.38;;
27213;SDS011;14723;55.814;37.460;2023-02-12T11:59:47;2.60;;;1.00;;
27213;SDS011;14723;55.814;37.460;2023-02-12T12:02:54;3.25;;;1.20;;
27213;SDS011;14723;55.814;37.460;2023-02-12T12:06:04;1.13;;;0.60;;
27213;SDS011;14723;55.814;37.460;2023-02-12T12:09:14;1.88;;;0.82;;
27213;SDS011;14723;55.814;37.460;2023-02-12T12:12:20;5.55;;;1.10;;
27213;SDS011;14723;55.814;37.460;2023-02-12T12:15:27;4.18;;;2.03;;
27213;SDS011;14723;55.814;37.460;2023-02-12T12:18:47;2.92;;;0.90;;
27213;SDS011;14723;55.814;37.460;2023-02-12T12:22:10;2.95;;;1.17;;
27213;SDS011;14723;55.814;37.460;2023-02-12T12:25:22;2.60;;;0.90;;
27213;SDS011;14723;55.814;37.460;2023-02-12T12:28:29;2.00;;;0.80;;
27213;SDS011;14723;55.814;37.460;2023-02-12T12:31:37;2.10;;;0.75;;
27213;SDS011;14723;55.814;37.460;2023-02-12T12:34:43;1.48;;;0.90;;
27213;SDS011;14723;55.814;37.460;2023-02-12T12:37:50;3.13;;;0.75;;
27213;SDS011;14723;55.814;37.460;2023-02-12T12:41:02;2.67;;;1.23;;
27213;SDS011;14723;55.814;37.460;2023-02-12T12:44:16;2.58;;;0.90;;
27213;SDS011;14723;55.814;37.460;2023-02-12T12:47:25;2.08;;;0.90;;
27213;SDS011;14723;55.814;37.460;2023-02-12T12:50:41;4.50;;;1.02;;
27213;SDS011;14723;55.814;37.460;2023-02-12T12:53:53;1.95;;;0.88;;
27213;SDS011;14723;55.814;37.460;2023-02-12T12:57:04;4.05;;;1.23;;
27213;SDS011;14723;55.814;37.460;2023-02-12T13:00:23;44.92;;;2.17;;
27213;SDS011;14723;55.814;37.460;2023-02-12T13:03:46;5.50;;;1.10;;
27213;SDS011;14723;55.814;37.460;2023-02-12T13:07:00;2.22;;;0.70;;
27213;SDS011;14723;55.814;37.460;2023-02-12T13:10:16;3.08;;;0.80;;
27213;SDS011;14723;55.814;37.460;2023-02-12T13:13:27;2.58;;;1.30;;
27213;SDS011;14723;55.814;37.460;2023-02-12T13:16:36;4.63;;;1.25;;
27213;SDS011;14723;55.814;37.460;2023-02-12T13:19:47;2.53;;;1.00;;
27213;SDS011;14723;55.814;37.460;2023-02-12T13:22:56;1.20;;;0.70;;
27213;SDS011;14723;55.814;37.460;2023-02-12T13:26:05;3.38;;;0.88;;
27213;SDS011;14723;55.814;37.460;2023-02-12T13:29:15;3.47;;;1.10;;
27213;SDS011;14723;55.814;37.460;2023-02-12T13:32:23;3.13;;;1.48;;
27213;SDS011;14723;55.814;37.460;2023-02-12T13:35:30;3.60;;;1.05;;
27213;SDS011;14723;55.814;37.460;2023-02-12T13:38:39;1.55;;;0.73;;
27213;SDS011;14723;55.814;37.460;2023-02-12T13:41:47;3.50;;;1.35;;
27213;SDS011;14723;55.814;37.460;2023-02-12T13:45:00;3.70;;;1.40;;
27213;SDS011;14723;55.814;37.460;2023-02-12T13:48:21;4.05;;;1.20;;
27213;SDS011;14723;55.814;37.460;2023-02-12T13:51:34;3.65;;;0.80;;
27213;SDS011;14723;55.814;37.460;2023-02-12T13:54:45;4.72;;;1.45;;
27213;SDS011;14723;55.814;37.460;2023-02-12T14:04:36;4.80;;;0.90;;
27213;SDS011;14723;55.814;37.460;2023-02-12T14:07:44;3.78;;;1.27;;
27213;SDS011;14723;55.814;37.460;2023-02-12T14:11:02;1.70;;;0.85;;
27213;SDS011;14723;55.814;37.460;2023-02-12T14:14:07;3.28;;;0.90;;
27213;SDS011;14723;55.814;37.460;2023-02-12T14:20:38;3.42;;;1.15;;
27213;SDS011;14723;55.814;37.460;2023-02-12T14:23:44;4.40;;;1.45;;
27213;SDS011;14723;55.814;37.460;2023-02-12T14:26:51;3.50;;;1.10;;
27213;SDS011;14723;55.814;37.460;2023-02-12T14:30:01;2.90;;;1.10;;
27213;SDS011;14723;55.814;37.460;2023-02-12T14:33:17;3.83;;;1.45;;
27213;SDS011;14723;55.814;37.460;2023-02-12T14:36:37;4.72;;;1.20;;
27213;SDS011;14723;55.814;37.460;2023-02-12T14:39:44;3.45;;;1.50;;
27213;SDS011;14723;55.814;37.460;2023-02-12T14:42:54;2.95;;;1.50;;
27213;SDS011;14723;55.814;37.460;2023-02-12T14:49:22;4.43;;;1.70;;
27213;SDS011;14723;55.814;37.460;2023-02-12T14:52:32;3.20;;;1.40;;
27213;SDS011;14723;55.814;37.460;2023-02-12T14:55:42;3.13;;;1.38;;
27213;SDS011;14723;55.814;37.460;2023-02-12T14:58:51;3.35;;;1.30;;
27213;SDS011;14723;55.814;37.460;2023-02-12T15:01:57;2.28;;;1.05;;
27213;SDS011;14723;55.814;37.460;2023-02-12T15:05:06;2.85;;;1.00;;
27213;SDS011;14723;55.814;37.460;2023-02-12T15:08:21;5.07;;;1.30;;
27213;SDS011;14723;55.814;37.460;2023-02-12T15:11:33;5.57;;;1.20;;
27213;SDS011;14723;55.814;37.460;2023-02-12T15:14:42;4.40;;;1.13;;
27213;SDS011;14723;55.814;37.460;2023-02-12T15:17:52;5.10;;;1.13;;
27213;SDS011;14723;55.814;37.460;2023-02-12T15:20:59;3.47;;;1.10;;
27213;SDS011;14723;55.814;37.460;2023-02-12T15:24:09;4.20;;;1.42;;
27213;SDS011;14723;55.814;37.460;2023-02-12T15:27:15;4.30;;;1.40;;
27213;SDS011;14723;55.814;37.460;2023-02-12T15:30:21;6.28;;;1.33;;
27213;SDS011;14723;55.814;37.460;2023-02-12T15:33:28;5.40;;;1.27;;
27213;SDS011;14723;55.814;37.460;2023-02-12T15:36:34;2.63;;;1.10;;
27213;SDS011;14723;55.814;37.460;2023-02-12T15:39:43;4.45;;;1.42;;
27213;SDS011;14723;55.814;37.460;2023-02-12T15:42:53;2.55;;;1.20;;
27213;SDS011;14723;55.814;37.460;2023-02-12T15:46:00;3.00;;;1.13;;
27213;SDS011;14723;55.814;37.460;2023-02-12T15:49:16;4.85;;;1.52;;
27213;SDS011;14723;55.814;37.460;2023-02-12T15:52:25;4.15;;;1.48;;
27213;SDS011;14723;55.814;37.460;2023-02-12T15:55:38;4.72;;;1.42;;
27213;SDS011;14723;55.814;37.460;2023-02-12T15:58:46;5.20;;;1.63;;
27213;SDS011;14723;55.814;37.460;2023-02-12T16:01:52;8.00;;;1.45;;
27213;SDS011;14723;55.814;37.460;2023-02-12T16:04:58;3.63;;;1.48;;
27213;SDS011;14723;55.814;37.460;2023-02-12T16:08:04;3.75;;;1.40;;
27213;SDS011;14723;55.814;37.460;2023-02-12T16:11:12;4.60;;;1.65;;
27213;SDS011;14723;55.814;37.460;2023-02-12T16:14:21;4.22;;;1.67;;
27213;SDS011;14723;55.814;37.460;2023-02-12T16:17:27;6.43;;;1.52;;
27213;SDS011;14723;55.814;37.460;2023-02-12T16:20:33;3.47;;;1.50;;
27213;SDS011;14723;55.814;37.460;2023-02-12T16:23:41;3.85;;;1.88;;
27213;SDS011;14723;55.814;37.460;2023-02-12T16:26:49;5.90;;;2.13;;
27213;SDS011;14723;55.814;37.460;2023-02-12T16:29:55;3.28;;;1.52;;
27213;SDS011;14723;55.814;37.460;2023-02-12T16:33:03;3.00;;;1.70;;
27213;SDS011;14723;55.814;37.460;2023-02-12T16:36:10;4.95;;;1.70;;
27213;SDS011;14723;55.814;37.460;2023-02-12T16:42:57;2.50;;;1.33;;
27213;SDS011;14723;55.814;37.460;2023-02-12T16:46:04;3.67;;;1.25;;
27213;SDS011;14723;55.814;37.460;2023-02-12T16:49:12;3.75;;;1.85;;
27213;SDS011;14723;55.814;37.460;2023-02-12T16:52:19;3.67;;;1.50;;
27213;SDS011;14723;55.814;37.460;2023-02-12T16:55:26;3.87;;;1.80;;
27213;SDS011;14723;55.814;37.460;2023-02-12T16:58:34;5.78;;;2.53;;
27213;SDS011;14723;55.814;37.460;2023-02-12T17:04:45;5.63;;;1.50;;
27213;SDS011;14723;55.814;37.460;2023-02-12T17:07:50;3.78;;;1.60;;
27213;SDS011;14723;55.814;37.460;2023-02-12T17:10:56;5.38;;;2.05;;
27213;SDS011;14723;55.814;37.460;2023-02-12T17:14:04;4.18;;;1.55;;
27213;SDS011;14723;55.814;37.460;2023-02-12T17:17:09;5.47;;;2.08;;
27213;SDS011;14723;55.814;37.460;2023-02-12T17:20:14;4.60;;;1.40;;
27213;SDS011;14723;55.814;37.460;2023-02-12T17:23:20;5.90;;;1.85;;
27213;SDS011;14723;55.814;37.460;2023-02-12T17:26:26;6.32;;;1.92;;
27213;SDS011;14723;55.814;37.460;2023-02-12T17:29:34;6.00;;;2.42;;
27213;SDS011;14723;55.814;37.460;2023-02-12T17:32:39;5.38;;;2.08;;
27213;SDS011;14723;55.814;37.460;2023-02-12T17:35:45;4.60;;;2.15;;
27213;SDS011;14723;55.814;37.460;2023-02-12T17:38:50;6.25;;;2.40;;
27213;SDS011;14723;55.814;37.460;2023-02-12T17:41:56;8.82;;;3.08;;
27213;SDS011;14723;55.814;37.460;2023-02-12T17:45:06;6.18;;;2.80;;
27213;SDS011;14723;55.814;37.460;2023-02-12T17:48:13;6.15;;;2.83;;
27213;SDS011;14723;55.814;37.460;2023-02-12T17:51:19;6.18;;;2.60;;
27213;SDS011;14723;55.814;37.460;2023-02-12T17:54:24;6.90;;;2.70;;
27213;SDS011;14723;55.814;37.460;2023-02-12T17:57:30;6.85;;;2.60;;
27213;SDS011;14723;55.814;37.460;2023-02-12T18:00:38;5.47;;;2.72;;
27213;SDS011;14723;55.814;37.460;2023-02-12T18:03:44;8.90;;;3.53;;
27213;SDS011;14723;55.814;37.460;2023-02-12T18:06:53;6.60;;;2.40;;
27213;SDS011;14723;55.814;37.460;2023-02-12T18:10:00;9.48;;;2.75;;
27213;SDS011;14723;55.814;37.460;2023-02-12T18:13:06;6.90;;;2.35;;
27213;SDS011;14723;55.814;37.460;2023-02-12T18:16:14;7.75;;;2.70;;
27213;SDS011;14723;55.814;37.460;2023-02-12T18:22:25;6.45;;;2.35;;
27213;SDS011;14723;55.814;37.460;2023-02-12T18:25:30;7.65;;;2.65;;
27213;SDS011;14723;55.814;37.460;2023-02-12T18:28:35;5.72;;;2.55;;
27213;SDS011;14723;55.814;37.460;2023-02-12T18:31:44;4.82;;;2.10;;
27213;SDS011;14723;55.814;37.460;2023-02-12T18:34:49;7.95;;;2.88;;
27213;SDS011;14723;55.814;37.460;2023-02-12T18:37:55;7.20;;;3.00;;
27213;SDS011;14723;55.814;37.460;2023-02-12T18:41:04;6.43;;;2.70;;
27213;SDS011;14723;55.814;37.460;2023-02-12T18:44:09;6.40;;;2.42;;
27213;SDS011;14723;55.814;37.460;2023-02-12T18:47:17;6.43;;;3.30;;
27213;SDS011;14723;55.814;37.460;2023-02-12T18:50:23;10.88;;;3.80;;
27213;SDS011;14723;55.814;37.460;2023-02-12T18:53:28;6.38;;;3.17;;
27213;SDS011;14723;55.814;37.460;2023-02-12T18:56:34;12.68;;;3.80;;
27213;SDS011;14723;55.814;37.460;2023-02-12T18:59:41;7.30;;;2.97;;
27213;SDS011;14723;55.814;37.460;2023-02-12T19:02:49;5.45;;;2.63;;
27213;SDS011;14723;55.814;37.460;2023-02-12T19:06:01;5.93;;;2.72;;